Time;durP1;ratioP1;P1;durP2;ratioP2;P2;SDS_P1;SDS_P2;PMS_P1;PMS_P2;Temp;Humidity;BMP_temperature;BMP_pressure;BME280_temperature;BME280_humidity;BME280_pressure;Samples;Min_cycle;Max_cycle;Signal;HPM_P1;HPM_P2
2022/02/21 00:00:57;;;;;;;;;;;9.30;99.90;;;;;;5076023;28;20284;-77
2022/02/21 00:03:22;;;;;;;;;;;9.30;99.90;;;;;;5075731;28;19915;-79
2022/02/21 00:05:49;;;;;;;;;;;9.30;99.90;;;;;;5075729;28;19908;-78
2022/02/21 00:08:14;;;;;;;;;;;9.30;99.90;;;;;;5075400;28;19915;-78
2022/02/21 00:10:40;;;;;;;;;;;9.30;99.90;;;;;;5075718;28;19999;-78
2022/02/21 00:13:06;;;;;;;;;;;9.30;99.90;;;;;;5075752;28;19908;-78
2022/02/21 00:15:31;;;;;;;;;;;9.20;99.90;;;;;;5057533;28;20421;-79
2022/02/21 00:17:57;;;;;;;;;;;9.20;99.90;;;;;;5075077;28;20296;-78
2022/02/21 00:20:23;;;;;;;;;;;9.10;99.90;;;;;;5075726;28;19916;-78
2022/02/21 00:22:49;;;;;;;;;;;9.10;99.90;;;;;;5075466;28;19916;-79
2022/02/21 00:25:15;;;;;;;;;;;9.10;99.90;;;;;;5075374;28;19917;-78
2022/02/21 00:27:40;;;;;;;;;;;9.00;99.90;;;;;;5075371;28;19915;-78
2022/02/21 00:30:06;;;;;;;;;;;9.00;99.90;;;;;;5075227;28;19935;-78
2022/02/21 00:32:32;;;;;;;;;;;8.80;99.90;;;;;;5057295;28;20387;-78
2022/02/21 00:34:58;;;;;;;;;;;8.80;99.90;;;;;;5075177;28;19908;-77
2022/02/21 00:37:24;;;;;;;;;;;8.80;99.90;;;;;;5057143;28;19916;-78
2022/02/21 00:39:50;;;;;;;;;;;8.70;99.90;;;;;;5075091;28;19908;-79
2022/02/21 00:42:21;;;;;;;;;;;8.70;99.90;;;;;;5075170;28;19908;-77
2022/02/21 00:44:48;;;;;;;;;;;8.70;99.90;;;;;;5075026;28;20347;-79
2022/02/21 00:47:14;;;;;;;;;;;8.90;99.90;;;;;;5074935;28;19916;-79
2022/02/21 00:49:40;;;;;;;;;;;9.00;99.90;;;;;;5075207;28;19912;-78
2022/02/21 00:52:05;;;;;;;;;;;9.00;99.90;;;;;;5074868;28;20468;-78
2022/02/21 00:54:31;;;;;;;;;;;9.10;99.90;;;;;;5056850;28;19908;-78
2022/02/21 00:56:57;;;;;;;;;;;9.10;99.90;;;;;;5074671;28;19908;-79
2022/02/21 00:59:23;;;;;;;;;;;9.10;99.90;;;;;;5074681;28;19908;-79
2022/02/21 01:01:48;;;;;;;;;;;9.00;99.90;;;;;;5074991;28;19919;-78
2022/02/21 01:04:14;;;;;;;;;;;8.90;99.90;;;;;;5074591;28;19918;-78
2022/02/21 01:06:39;;;;;;;;;;;8.80;99.90;;;;;;5056643;28;19908;-78
2022/02/21 01:09:05;;;;;;;;;;;8.70;99.90;;;;;;5074413;28;19912;-79
2022/02/21 01:11:30;;;;;;;;;;;8.60;99.90;;;;;;5074477;28;19946;-78
2022/02/21 01:13:57;;;;;;;;;;;8.50;99.90;;;;;;5074433;28;19978;-78
2022/02/21 01:16:24;;;;;;;;;;;8.50;99.90;;;;;;5074183;28;19921;-78
2022/02/21 01:18:50;;;;;;;;;;;8.60;99.90;;;;;;5056166;28;19940;-78
2022/02/21 01:21:16;;;;;;;;;;;8.70;99.90;;;;;;5073645;28;19908;-79
2022/02/21 01:23:41;;;;;;;;;;;8.70;99.90;;;;;;5074643;28;19909;-77
2022/02/21 01:26:07;;;;;;;;;;;8.70;99.90;;;;;;5074518;28;19992;-78
2022/02/21 01:28:33;;;;;;;;;;;8.70;99.90;;;;;;5074292;28;20365;-78
2022/02/21 01:30:58;;;;;;;;;;;8.70;99.90;;;;;;5074014;28;19912;-77
2022/02/21 01:33:25;;;;;;;;;;;8.80;99.90;;;;;;5074015;28;19908;-77
2022/02/21 01:35:51;;;;;;;;;;;8.90;99.90;;;;;;5056052;28;19955;-78
2022/02/21 01:38:17;;;;;;;;;;;8.70;99.90;;;;;;5074261;28;19908;-78
2022/02/21 01:40:42;;;;;;;;;;;8.50;99.90;;;;;;5074046;28;19915;-78
2022/02/21 01:43:08;;;;;;;;;;;8.30;99.90;;;;;;5055891;28;20381;-79
2022/02/21 01:45:34;;;;;;;;;;;8.30;99.90;;;;;;5073883;28;19908;-78
2022/02/21 01:47:59;;;;;;;;;;;8.20;99.90;;;;;;5073831;28;20296;-78
2022/02/21 01:50:25;;;;;;;;;;;8.30;99.90;;;;;;5074064;28;19916;-78
2022/02/21 01:52:50;;;;;;;;;;;8.40;99.90;;;;;;5073910;28;19909;-78
2022/02/21 01:55:16;;;;;;;;;;;8.40;99.90;;;;;;5073767;28;19909;-77
2022/02/21 01:57:42;;;;;;;;;;;8.50;99.90;;;;;;5073744;28;19909;-79
2022/02/21 02:00:08;;;;;;;;;;;8.50;99.90;;;;;;5055672;28;19965;-77
2022/02/21 02:02:34;;;;;;;;;;;8.60;99.90;;;;;;5073646;28;19915;-78
2022/02/21 02:04:59;;;;;;;;;;;8.60;99.90;;;;;;5055664;28;20280;-78
2022/02/21 02:07:25;;;;;;;;;;;8.60;99.90;;;;;;5055634;28;19912;-77
2022/02/21 02:09:50;;;;;;;;;;;8.60;99.90;;;;;;5073534;28;20441;-78
2022/02/21 02:12:16;;;;;;;;;;;8.60;99.90;;;;;;5073611;28;19908;-79
2022/02/21 02:14:41;;;;;;;;;;;8.60;99.90;;;;;;5055608;28;19908;-77
2022/02/21 02:17:08;;;;;;;;;;;8.60;99.90;;;;;;5073297;28;19928;-78
2022/02/21 02:19:34;;;;;;;;;;;8.60;99.90;;;;;;5073736;28;20388;-78
2022/02/21 02:22:16;;;;;;;;;;;8.50;99.90;;;;;;5073485;28;19909;-77
2022/02/21 02:24:42;;;;;;;;;;;8.50;99.90;;;;;;5073642;28;20349;-79
2022/02/21 02:27:09;;;;;;;;;;;8.50;99.90;;;;;;5073784;28;20311;-79
2022/02/21 02:29:35;;;;;;;;;;;8.50;99.90;;;;;;5073337;28;19912;-78
2022/02/21 02:32:00;;;;;;;;;;;8.40;99.90;;;;;;5057323;28;19909;-77
2022/02/21 02:34:26;;;;;;;;;;;8.40;99.90;;;;;;5077473;28;19924;-79
2022/02/21 02:36:51;;;;;;;;;;;8.30;99.90;;;;;;5077516;28;19916;-78
2022/02/21 02:39:17;;;;;;;;;;;8.30;99.90;;;;;;5077362;28;20334;-78
2022/02/21 02:41:43;;;;;;;;;;;8.20;99.90;;;;;;5077579;28;19995;-79
2022/02/21 02:44:09;;;;;;;;;;;8.20;99.90;;;;;;5077447;28;19915;-79
2022/02/21 02:46:35;;;;;;;;;;;8.10;99.90;;;;;;5077436;28;20368;-78
2022/02/21 02:49:00;;;;;;;;;;;8.20;99.90;;;;;;5077243;28;20365;-77
2022/02/21 02:51:26;;;;;;;;;;;8.20;99.90;;;;;;5077038;28;19912;-78
2022/02/21 02:53:52;;;;;;;;;;;8.10;99.90;;;;;;5059039;28;20452;-79
2022/02/21 02:56:17;;;;;;;;;;;8.10;99.90;;;;;;5077058;28;19909;-78
2022/02/21 02:58:43;;;;;;;;;;;8.10;99.90;;;;;;5076992;28;20257;-78
2022/02/21 03:01:09;;;;;;;;;;;8.00;99.90;;;;;;5076909;28;19909;-78
2022/02/21 03:03:34;;;;;;;;;;;8.10;99.90;;;;;;5076950;28;19916;-78
2022/02/21 03:06:00;;;;;;;;;;;8.10;99.90;;;;;;5077213;28;19912;-78
2022/02/21 03:08:25;;;;;;;;;;;8.10;99.90;;;;;;5076922;28;19908;-78
2022/02/21 03:10:51;;;;;;;;;;;8.00;99.90;;;;;;5076762;28;19919;-79
2022/02/21 03:13:16;;;;;;;;;;;8.00;99.90;;;;;;5058753;28;19908;-79
2022/02/21 03:15:42;;;;;;;;;;;7.90;99.90;;;;;;5077099;28;20368;-78
2022/02/21 03:18:09;;;;;;;;;;;8.00;99.90;;;;;;5076155;28;19921;-79
2022/02/21 03:20:35;;;;;;;;;;;8.00;99.90;;;;;;5076613;28;19909;-78
2022/02/21 03:23:00;;;;;;;;;;;8.00;99.90;;;;;;5076560;28;20430;-78
2022/02/21 03:25:26;;;;;;;;;;;7.90;99.90;;;;;;5076528;28;19908;-77
2022/02/21 03:27:51;;;;;;;;;;;8.00;99.90;;;;;;5076719;28;19909;-78
2022/02/21 03:30:17;;;;;;;;;;;8.00;99.90;;;;;;5076688;28;19912;-77
2022/02/21 03:32:43;;;;;;;;;;;8.10;99.90;;;;;;5076425;28;20285;-78
2022/02/21 03:35:08;;;;;;;;;;;8.10;99.90;;;;;;5076382;28;19908;-78
2022/02/21 03:37:35;;;;;;;;;;;8.20;99.90;;;;;;5076524;28;19912;-77
2022/02/21 03:40:02;;;;;;;;;;;8.10;99.90;;;;;;5076254;28;19962;-77
2022/02/21 03:42:28;;;;;;;;;;;8.10;99.90;;;;;;5058169;28;19909;-78
2022/02/21 03:44:53;;;;;;;;;;;8.10;99.90;;;;;;5075710;28;19922;-77
2022/02/21 03:47:19;;;;;;;;;;;8.00;99.90;;;;;;5076178;28;19916;-79
2022/02/21 03:49:45;;;;;;;;;;;8.00;99.90;;;;;;5057976;28;20003;-79
2022/02/21 03:52:11;;;;;;;;;;;7.90;99.90;;;;;;5076354;28;19908;-78
2022/02/21 03:54:37;;;;;;;;;;;8.00;99.90;;;;;;5075964;28;19961;-78
2022/02/21 03:57:02;;;;;;;;;;;7.90;99.90;;;;;;5058020;28;19915;-79
2022/02/21 03:59:28;;;;;;;;;;;8.00;99.90;;;;;;5075846;28;20288;-78
2022/02/21 04:01:53;;;;;;;;;;;8.00;99.90;;;;;;5075875;28;19908;-79
2022/02/21 04:04:19;;;;;;;;;;;8.00;99.90;;;;;;5075809;28;20319;-78
2022/02/21 04:06:45;;;;;;;;;;;8.10;99.90;;;;;;5075938;28;20007;-78
2022/02/21 04:09:10;;;;;;;;;;;8.20;99.90;;;;;;5075695;28;20373;-78
2022/02/21 04:11:36;;;;;;;;;;;8.20;99.90;;;;;;5057704;28;19908;-77
2022/02/21 04:14:01;;;;;;;;;;;8.20;99.90;;;;;;5075977;28;19908;-77
2022/02/21 04:16:32;;;;;;;;;;;8.30;99.90;;;;;;5075717;28;19927;-79
2022/02/21 04:18:58;;;;;;;;;;;8.30;99.90;;;;;;5057278;28;20004;-78
2022/02/21 04:21:23;;;;;;;;;;;8.30;99.90;;;;;;5075561;28;19940;-78
2022/02/21 04:23:49;;;;;;;;;;;8.30;99.90;;;;;;5075429;28;19960;-79
2022/02/21 04:26:14;;;;;;;;;;;8.30;99.90;;;;;;5075518;28;19912;-77
2022/02/21 04:28:40;;;;;;;;;;;8.30;99.90;;;;;;5057343;28;19909;-77
2022/02/21 04:31:06;;;;;;;;;;;8.30;99.90;;;;;;5075416;28;19952;-79
2022/02/21 04:33:31;;;;;;;;;;;8.20;99.90;;;;;;5075380;28;19995;-78
2022/02/21 04:35:57;;;;;;;;;;;8.20;99.90;;;;;;5075279;28;19908;-78
2022/02/21 04:38:22;;;;;;;;;;;8.20;99.90;;;;;;5075094;28;19992;-79
2022/02/21 04:40:48;;;;;;;;;;;8.10;99.90;;;;;;5075131;28;20288;-78
2022/02/21 04:43:14;;;;;;;;;;;8.10;99.90;;;;;;5075025;28;19908;-77
2022/02/21 04:45:40;;;;;;;;;;;8.10;99.90;;;;;;5057052;28;19912;-79
2022/02/21 04:48:05;;;;;;;;;;;8.10;99.90;;;;;;5057036;28;19913;-78
2022/02/21 04:50:31;;;;;;;;;;;8.10;99.90;;;;;;5056883;28;19912;-78
2022/02/21 04:52:56;;;;;;;;;;;8.10;99.90;;;;;;5075150;28;19913;-79
2022/02/21 04:55:22;;;;;;;;;;;8.10;99.90;;;;;;5074077;28;19999;-78
2022/02/21 04:57:48;;;;;;;;;;;8.00;99.90;;;;;;5074759;28;20373;-78
2022/02/21 05:00:14;;;;;;;;;;;8.00;99.90;;;;;;5074708;28;19908;-77
2022/02/21 05:02:40;;;;;;;;;;;8.00;99.90;;;;;;5074680;28;19998;-78
2022/02/21 05:05:09;;;;;;;;;;;8.00;99.90;;;;;;5074603;28;19943;-78
2022/02/21 05:07:36;;;;;;;;;;;8.00;99.90;;;;;;5074751;28;19998;-79
2022/02/21 05:10:01;;;;;;;;;;;8.10;99.90;;;;;;5074513;28;19913;-77
2022/02/21 05:12:27;;;;;;;;;;;8.20;99.90;;;;;;5074420;28;19931;-79
2022/02/21 05:14:52;;;;;;;;;;;8.30;99.90;;;;;;5074121;28;20381;-78
2022/02/21 05:17:26;;;;;;;;;;;8.40;99.90;;;;;;5132400;27;20372;-78
2022/02/21 05:19:52;;;;;;;;;;;8.40;99.90;;;;;;5113662;28;19911;-78
2022/02/21 05:22:18;;;;;;;;;;;8.30;99.90;;;;;;5132301;28;19914;-78
2022/02/21 05:24:43;;;;;;;;;;;8.30;99.90;;;;;;5132490;28;19907;-79
2022/02/21 05:27:09;;;;;;;;;;;8.30;99.90;;;;;;5131896;28;19908;-78
2022/02/21 05:29:34;;;;;;;;;;;8.20;99.90;;;;;;5113428;28;19953;-78
2022/02/21 05:32:00;;;;;;;;;;;8.00;99.90;;;;;;5131794;28;19908;-79
2022/02/21 05:34:26;;;;;;;;;;;8.00;99.90;;;;;;5131764;28;19907;-80
2022/02/21 05:36:51;;;;;;;;;;;7.90;99.90;;;;;;5131886;28;19912;-78
2022/02/21 05:39:18;;;;;;;;;;;7.80;99.90;;;;;;5131835;28;19964;-79
2022/02/21 05:41:43;;;;;;;;;;;7.80;99.90;;;;;;5131910;28;19908;-80
2022/02/21 05:44:09;;;;;;;;;;;7.70;99.90;;;;;;5131663;28;19930;-80
2022/02/21 05:46:35;;;;;;;;;;;7.70;99.90;;;;;;5131575;28;19957;-80
2022/02/21 05:49:01;;;;;;;;;;;7.70;99.90;;;;;;5131950;28;19907;-78
2022/02/21 05:51:26;;;;;;;;;;;7.70;99.90;;;;;;5131470;28;20387;-79
2022/02/21 05:53:52;;;;;;;;;;;7.80;99.90;;;;;;5120924;28;19915;-78
2022/02/21 05:56:17;;;;;;;;;;;7.90;99.90;;;;;;5110774;28;19912;-78
2022/02/21 05:58:43;;;;;;;;;;;7.90;99.90;;;;;;5110783;28;20387;-79
2022/02/21 06:01:09;;;;;;;;;;;8.00;99.90;;;;;;5110768;28;19915;-79
2022/02/21 06:03:34;;;;;;;;;;;8.10;99.90;;;;;;5110680;28;20374;-78
2022/02/21 06:06:00;;;;;;;;;;;8.10;99.90;;;;;;5092329;28;19914;-79
2022/02/21 06:08:26;;;;;;;;;;;8.10;99.90;;;;;;5110845;28;20004;-79
2022/02/21 06:10:51;;;;;;;;;;;8.10;99.90;;;;;;5110585;28;19908;-79
2022/02/21 06:13:17;;;;;;;;;;;8.10;99.90;;;;;;5092209;28;19912;-79
2022/02/21 06:15:42;;;;;;;;;;;8.00;99.90;;;;;;5110078;28;19920;-79
2022/02/21 06:18:08;;;;;;;;;;;8.10;99.90;;;;;;5110484;28;19908;-77
2022/02/21 06:20:34;;;;;;;;;;;8.00;99.90;;;;;;5110410;28;19908;-79
2022/02/21 06:22:59;;;;;;;;;;;8.00;99.90;;;;;;5092157;28;19960;-79
2022/02/21 06:25:25;;;;;;;;;;;7.90;99.90;;;;;;5110306;28;20402;-78
2022/02/21 06:27:50;;;;;;;;;;;7.90;99.90;;;;;;5102100;28;20288;-77
2022/02/21 06:30:16;;;;;;;;;;;7.80;99.90;;;;;;5078415;28;19915;-78
2022/02/21 06:32:42;;;;;;;;;;;7.80;99.90;;;;;;5078452;28;19916;-79
2022/02/21 06:35:09;;;;;;;;;;;7.70;99.90;;;;;;5096915;28;19916;-79
2022/02/21 06:37:39;;;;;;;;;;;7.70;99.90;;;;;;5096505;28;19908;-78
2022/02/21 06:40:05;;;;;;;;;;;7.80;99.90;;;;;;5096520;28;20368;-79
2022/02/21 06:42:30;;;;;;;;;;;7.90;99.90;;;;;;5096952;28;19908;-79
2022/02/21 06:44:56;;;;;;;;;;;8.00;99.90;;;;;;5096300;28;19931;-78
2022/02/21 06:47:21;;;;;;;;;;;8.00;99.90;;;;;;5096488;28;19995;-78
2022/02/21 06:49:47;;;;;;;;;;;8.00;99.90;;;;;;5096257;28;20380;-79
2022/02/21 06:52:13;;;;;;;;;;;8.00;99.90;;;;;;5096469;28;19963;-78
2022/02/21 06:54:38;;;;;;;;;;;8.00;99.90;;;;;;5096186;28;19916;-79
2022/02/21 06:57:04;;;;;;;;;;;7.90;99.90;;;;;;5095970;28;19995;-78
2022/02/21 06:59:29;;;;;;;;;;;7.90;99.90;;;;;;5096344;28;19943;-79
2022/02/21 07:01:56;;;;;;;;;;;7.90;99.90;;;;;;5096254;28;19915;-78
2022/02/21 07:04:22;;;;;;;;;;;7.90;99.90;;;;;;5095986;28;20295;-79
2022/02/21 07:06:47;;;;;;;;;;;7.90;99.90;;;;;;5095868;28;20007;-79
2022/02/21 07:09:14;;;;;;;;;;;8.00;99.90;;;;;;5077787;28;19939;-79
2022/02/21 07:11:39;;;;;;;;;;;8.00;99.90;;;;;;5096379;28;19909;-79
2022/02/21 07:14:05;;;;;;;;;;;8.00;99.90;;;;;;5095758;28;19908;-79
2022/02/21 07:16:31;;;;;;;;;;;8.00;99.90;;;;;;5077268;28;19920;-78
2022/02/21 07:18:57;;;;;;;;;;;8.00;99.90;;;;;;5095721;28;20297;-79
2022/02/21 07:21:22;;;;;;;;;;;8.00;99.90;;;;;;5095643;28;19915;-79
2022/02/21 07:23:48;;;;;;;;;;;8.20;99.90;;;;;;5095648;28;19908;-79
2022/02/21 07:26:14;;;;;;;;;;;8.20;99.90;;;;;;5095572;28;19912;-79
2022/02/21 07:28:39;;;;;;;;;;;8.20;99.90;;;;;;5095938;28;19908;-78
2022/02/21 07:31:09;;;;;;;;;;;8.30;99.90;;;;;;5095444;28;19999;-78
2022/02/21 07:33:35;;;;;;;;;;;8.30;99.90;;;;;;5077260;28;20403;-79
2022/02/21 07:36:00;;;;;;;;;;;8.40;99.90;;;;;;5095304;28;19978;-80
2022/02/21 07:38:26;;;;;;;;;;;8.30;99.90;;;;;;5095081;28;19908;-79
2022/02/21 07:40:51;;;;;;;;;;;8.40;99.90;;;;;;5094881;28;19915;-78
2022/02/21 07:43:17;;;;;;;;;;;8.40;99.90;;;;;;5095223;28;20399;-79
2022/02/21 07:45:42;;;;;;;;;;;8.50;99.90;;;;;;5095191;28;19909;-78
2022/02/21 07:48:08;;;;;;;;;;;8.50;99.90;;;;;;5095100;28;20394;-79
2022/02/21 07:50:35;;;;;;;;;;;8.60;99.90;;;;;;5095305;28;19915;-80
2022/02/21 07:53:02;;;;;;;;;;;8.70;99.90;;;;;;5095578;28;19961;-79
2022/02/21 07:55:28;;;;;;;;;;;9.00;99.90;;;;;;5076829;28;19916;-80
2022/02/21 07:57:54;;;;;;;;;;;9.30;99.90;;;;;;5076744;28;20411;-78
2022/02/21 08:00:22;;;;;;;;;;;9.30;99.90;;;;;;5095393;28;19969;-79
2022/02/21 08:02:49;;;;;;;;;;;9.20;99.90;;;;;;5076752;28;19969;-79
2022/02/21 08:05:15;;;;;;;;;;;9.00;99.90;;;;;;5076643;28;19916;-79
2022/02/21 08:07:42;;;;;;;;;;;9.00;99.90;;;;;;5076574;28;20387;-79
2022/02/21 08:10:08;;;;;;;;;;;9.00;99.90;;;;;;5094766;28;19945;-78
2022/02/21 08:12:34;;;;;;;;;;;9.00;99.90;;;;;;5094898;28;19931;-79
2022/02/21 08:14:59;;;;;;;;;;;8.90;99.90;;;;;;5094920;28;20364;-79
2022/02/21 08:17:26;;;;;;;;;;;8.90;99.90;;;;;;5094510;28;19999;-79
2022/02/21 08:19:52;;;;;;;;;;;9.90;99.90;;;;;;5094555;28;19908;-78
2022/02/21 08:22:18;;;;;;;;;;;10.30;99.90;;;;;;5094511;28;19912;-79
2022/02/21 08:24:43;;;;;;;;;;;10.50;99.90;;;;;;5094490;28;20299;-79
2022/02/21 08:27:10;;;;;;;;;;;11.00;99.90;;;;;;5094464;28;20279;-80
2022/02/21 08:29:36;;;;;;;;;;;11.60;99.90;;;;;;5094536;28;20479;-80
2022/02/21 08:32:02;;;;;;;;;;;12.60;99.90;;;;;;5094386;28;20000;-79
2022/02/21 08:34:28;;;;;;;;;;;12.60;99.90;;;;;;5094336;28;19912;-79
2022/02/21 08:36:54;;;;;;;;;;;11.60;99.90;;;;;;5075956;28;19912;-78
2022/02/21 08:39:20;;;;;;;;;;;10.80;99.90;;;;;;5094402;28;19908;-79
2022/02/21 08:41:45;;;;;;;;;;;10.70;99.90;;;;;;5094312;28;19908;-79
2022/02/21 08:44:11;;;;;;;;;;;10.30;99.90;;;;;;5094149;28;20284;-79
2022/02/21 08:46:37;;;;;;;;;;;10.10;99.90;;;;;;5094098;28;19965;-78
2022/02/21 08:49:03;;;;;;;;;;;9.70;99.90;;;;;;5094073;28;19908;-79
2022/02/21 08:51:29;;;;;;;;;;;9.50;99.90;;;;;;5093942;28;19957;-79
2022/02/21 08:53:55;;;;;;;;;;;9.30;99.90;;;;;;5094079;28;20334;-79
2022/02/21 08:56:20;;;;;;;;;;;9.20;99.90;;;;;;5093955;28;19962;-79
2022/02/21 08:58:46;;;;;;;;;;;9.10;99.90;;;;;;5093880;28;19908;-78
2022/02/21 09:01:11;;;;;;;;;;;9.10;99.90;;;;;;5094314;28;19944;-77
2022/02/21 09:03:37;;;;;;;;;;;9.20;99.90;;;;;;5094185;28;19912;-79
2022/02/21 09:06:03;;;;;;;;;;;9.50;99.90;;;;;;5093852;28;19957;-78
2022/02/21 09:08:31;;;;;;;;;;;9.60;99.90;;;;;;5093826;28;19908;-79
2022/02/21 09:10:57;;;;;;;;;;;9.80;99.90;;;;;;5093749;28;19960;-80
2022/02/21 09:13:23;;;;;;;;;;;10.00;99.90;;;;;;5093720;28;20299;-78
2022/02/21 09:15:48;;;;;;;;;;;10.30;99.90;;;;;;5093443;28;19920;-79
2022/02/21 09:18:14;;;;;;;;;;;12.20;99.90;;;;;;5093740;28;19912;-78
2022/02/21 09:20:39;;;;;;;;;;;14.20;99.90;;;;;;5093707;28;19908;-80
2022/02/21 09:23:05;;;;;;;;;;;16.30;99.90;;;;;;5093719;28;19944;-80
2022/02/21 09:25:31;;;;;;;;;;;16.60;99.90;;;;;;5093672;28;19908;-80
2022/02/21 09:27:56;;;;;;;;;;;16.30;98.20;;;;;;5093883;28;20360;-80
2022/02/21 09:30:22;;;;;;;;;;;15.60;99.80;;;;;;5094069;28;19908;-80
2022/02/21 09:32:49;;;;;;;;;;;15.40;99.90;;;;;;5093629;28;20338;-80
2022/02/21 09:35:14;;;;;;;;;;;13.90;99.90;;;;;;5093514;28;19957;-80
2022/02/21 09:37:40;;;;;;;;;;;12.90;99.90;;;;;;5093539;28;19912;-80
2022/02/21 09:40:07;;;;;;;;;;;12.10;99.90;;;;;;5093544;28;20257;-79
2022/02/21 09:42:32;;;;;;;;;;;11.60;99.90;;;;;;5093793;28;19908;-80
2022/02/21 09:44:59;;;;;;;;;;;11.20;99.90;;;;;;5093568;28;19909;-80
2022/02/21 09:47:25;;;;;;;;;;;10.80;99.90;;;;;;5093431;28;19915;-80
2022/02/21 09:49:53;;;;;;;;;;;11.00;99.90;;;;;;5093455;28;19908;-79
2022/02/21 09:52:18;;;;;;;;;;;12.70;99.90;;;;;;5093403;28;19908;-80
2022/02/21 09:54:44;;;;;;;;;;;13.90;99.90;;;;;;5093418;28;19908;-80
2022/02/21 09:57:09;;;;;;;;;;;13.90;99.90;;;;;;5093251;28;20007;-79
2022/02/21 09:59:35;;;;;;;;;;;13.40;99.90;;;;;;5093311;28;19915;-80
2022/02/21 10:02:01;;;;;;;;;;;14.60;99.90;;;;;;5093709;28;19908;-80
2022/02/21 10:04:29;;;;;;;;;;;17.20;99.90;;;;;;5097111;28;19915;-79
2022/02/21 10:06:56;;;;;;;;;;;16.80;99.20;;;;;;5097355;28;19914;-79
2022/02/21 10:09:24;;;;;;;;;;;15.50;99.90;;;;;;5097148;28;19915;-80
2022/02/21 10:11:51;;;;;;;;;;;14.90;99.90;;;;;;5078612;28;20346;-79
2022/02/21 10:14:18;;;;;;;;;;;14.50;99.90;;;;;;5097051;28;19915;-80
2022/02/21 10:16:47;;;;;;;;;;;16.30;99.90;;;;;;5096742;28;19967;-79
2022/02/21 10:19:20;;;;;;;;;;;18.40;97.70;;;;;;5096898;28;19908;-80
2022/02/21 10:21:57;;;;;;;;;;;18.50;96.30;;;;;;5078656;28;19931;-80
2022/02/21 10:24:24;;;;;;;;;;;18.80;94.20;;;;;;5097037;28;19908;-79
2022/02/21 10:26:50;;;;;;;;;;;18.90;92.60;;;;;;5096715;28;19914;-80
2022/02/21 10:29:17;;;;;;;;;;;20.20;90.40;;;;;;5096744;28;20006;-80
2022/02/21 10:31:43;;;;;;;;;;;20.30;87.90;;;;;;5096773;28;19920;-79
2022/02/21 10:34:09;;;;;;;;;;;20.80;85.00;;;;;;5096881;28;19991;-80
2022/02/21 10:36:36;;;;;;;;;;;20.10;85.40;;;;;;5096508;28;19919;-80
2022/02/21 10:39:04;;;;;;;;;;;22.10;80.80;;;;;;5096610;28;19908;-80
2022/02/21 10:41:57;;;;;;;;;;;20.30;80.10;;;;;;5096569;28;19908;-80
2022/02/21 10:44:24;;;;;;;;;;;19.50;81.50;;;;;;5074103;28;19908;-80
2022/02/21 10:47:06;;;;;;;;;;;20.10;83.10;;;;;;5096473;28;19919;-80
2022/02/21 10:49:33;;;;;;;;;;;20.20;80.80;;;;;;5096279;28;19908;-80
2022/02/21 10:52:00;;;;;;;;;;;19.20;80.80;;;;;;5096218;28;19908;-79
2022/02/21 10:54:35;;;;;;;;;;;18.30;85.40;;;;;;5077969;28;19916;-79
2022/02/21 10:57:00;;;;;;;;;;;18.90;85.40;;;;;;5096173;28;19915;-79
2022/02/21 10:59:30;;;;;;;;;;;20.40;82.70;;;;;;5077980;28;19998;-79
2022/02/21 11:01:56;;;;;;;;;;;21.70;78.60;;;;;;5096093;28;19953;-79
2022/02/21 11:04:23;;;;;;;;;;;20.10;77.20;;;;;;5096048;28;19961;-79
2022/02/21 11:06:49;;;;;;;;;;;20.80;78.90;;;;;;5077734;28;20417;-80
2022/02/21 11:09:16;;;;;;;;;;;21.00;75.80;;;;;;5077810;28;19912;-80
2022/02/21 11:11:45;;;;;;;;;;;21.10;75.10;;;;;;5077772;28;20297;-79
2022/02/21 11:14:14;;;;;;;;;;;20.50;76.10;;;;;;5077554;28;19959;-80
2022/02/21 11:16:40;;;;;;;;;;;20.40;74.90;;;;;;5095539;28;19927;-79
2022/02/21 11:19:06;;;;;;;;;;;20.20;74.70;;;;;;5095862;28;19908;-79
2022/02/21 11:21:33;;;;;;;;;;;22.30;72.70;;;;;;5095784;28;19908;-79
2022/02/21 11:24:00;;;;;;;;;;;22.10;70.80;;;;;;5077562;28;19908;-81
2022/02/21 11:26:28;;;;;;;;;;;22.30;68.30;;;;;;5095709;28;19912;-80
2022/02/21 11:29:12;;;;;;;;;;;23.30;68.90;;;;;;5077386;28;19908;-79
2022/02/21 11:31:39;;;;;;;;;;;22.60;65.80;;;;;;5095510;28;19920;-79
2022/02/21 11:34:06;;;;;;;;;;;23.10;63.40;;;;;;5095459;28;19908;-80
2022/02/21 11:36:34;;;;;;;;;;;23.80;61.10;;;;;;5095394;28;19908;-79
2022/02/21 11:39:17;;;;;;;;;;;22.80;62.60;;;;;;5077162;28;20396;-79
2022/02/21 11:41:42;;;;;;;;;;;23.20;65.00;;;;;;5076930;28;19908;-79
2022/02/21 11:44:19;;;;;;;;;;;21.00;63.30;;;;;;5095634;28;19915;-79
2022/02/21 11:46:44;;;;;;;;;;;19.10;67.70;;;;;;5095152;28;19955;-79
2022/02/21 11:49:24;;;;;;;;;;;18.60;71.90;;;;;;5095339;28;20004;-78
2022/02/21 11:51:49;;;;;;;;;;;17.50;74.90;;;;;;5095108;28;19909;-79
2022/02/21 11:54:15;;;;;;;;;;;16.00;78.20;;;;;;5095330;28;20037;-79
2022/02/21 11:56:49;;;;;;;;;;;15.40;82.50;;;;;;5095010;28;19931;-79
2022/02/21 11:59:21;;;;;;;;;;;19.00;77.60;;;;;;5094939;28;19908;-79
2022/02/21 12:01:47;;;;;;;;;;;22.90;68.40;;;;;;5076722;28;20433;-79
2022/02/21 12:04:14;;;;;;;;;;;24.30;63.80;;;;;;5094870;28;19908;-79
2022/02/21 12:06:48;;;;;;;;;;;25.70;59.90;;;;;;5094964;28;19912;-79
2022/02/21 12:09:14;;;;;;;;;;;24.80;61.90;;;;;;5076354;28;20346;-79
2022/02/21 12:11:40;;;;;;;;;;;23.30;61.00;;;;;;5094712;28;19908;-79
2022/02/21 12:14:08;;;;;;;;;;;21.70;65.30;;;;;;5094949;28;19908;-78
2022/02/21 12:16:53;;;;;;;;;;;19.80;66.70;;;;;;5094523;28;20368;-78
2022/02/21 12:19:25;;;;;;;;;;;18.10;71.20;;;;;;5076211;28;19908;-78
2022/02/21 12:22:11;;;;;;;;;;;16.30;75.90;;;;;;5094994;28;19908;-79
2022/02/21 12:24:55;;;;;;;;;;;17.00;78.80;;;;;;5093746;28;19940;-79
2022/02/21 12:27:21;;;;;;;;;;;21.50;68.30;;;;;;5076115;28;19962;-79
2022/02/21 12:29:46;;;;;;;;;;;25.00;60.10;;;;;;5076242;28;19909;-79
2022/02/21 12:32:16;;;;;;;;;;;25.30;56.50;;;;;;5094376;28;19908;-79
2022/02/21 12:34:43;;;;;;;;;;;25.80;57.30;;;;;;5094417;28;19908;-79
2022/02/21 12:37:09;;;;;;;;;;;24.10;54.80;;;;;;5094272;28;19960;-79
2022/02/21 12:39:37;;;;;;;;;;;26.70;53.40;;;;;;5076705;28;19908;-80
2022/02/21 12:42:03;;;;;;;;;;;28.70;49.10;;;;;;5076040;28;19915;-79
2022/02/21 12:44:29;;;;;;;;;;;30.70;47.00;;;;;;5094138;28;19908;-80
2022/02/21 12:47:00;;;;;;;;;;;28.70;44.80;;;;;;5094060;28;19912;-77
2022/02/21 12:49:31;;;;;;;;;;;29.60;45.20;;;;;;5075690;28;19908;-77
2022/02/21 12:52:06;;;;;;;;;;;26.30;45.20;;;;;;5075932;28;19961;-77
2022/02/21 12:54:48;;;;;;;;;;;22.90;49.80;;;;;;5094166;28;20012;-76
2022/02/21 12:57:15;;;;;;;;;;;20.90;53.80;;;;;;5094005;28;19919;-77
2022/02/21 12:59:40;;;;;;;;;;;19.40;58.50;;;;;;5094364;28;19954;-78
2022/02/21 13:02:07;;;;;;;;;;;18.20;60.50;;;;;;5093888;28;19908;-78
2022/02/21 13:04:33;;;;;;;;;;;17.10;64.10;;;;;;5093833;28;19915;-78
2022/02/21 13:07:00;;;;;;;;;;;16.30;67.00;;;;;;5093756;28;19912;-79
2022/02/21 13:09:26;;;;;;;;;;;16.10;68.70;;;;;;5093836;28;19908;-78
2022/02/21 13:11:54;;;;;;;;;;;16.30;67.40;;;;;;5093765;28;19938;-79
2022/02/21 13:14:29;;;;;;;;;;;20.60;62.30;;;;;;5093981;28;19908;-79
2022/02/21 13:16:56;;;;;;;;;;;24.70;55.20;;;;;;5093561;28;19963;-79
2022/02/21 13:19:23;;;;;;;;;;;26.00;51.50;;;;;;5093734;28;19908;-79
2022/02/21 13:21:48;;;;;;;;;;;25.90;49.90;;;;;;5075626;28;20279;-80
2022/02/21 13:24:18;;;;;;;;;;;26.60;48.90;;;;;;5093671;28;19919;-80
2022/02/21 13:26:50;;;;;;;;;;;24.70;49.30;;;;;;5075481;28;19919;-79
2022/02/21 13:29:35;;;;;;;;;;;22.10;53.70;;;;;;5075540;28;20372;-79
2022/02/21 13:32:02;;;;;;;;;;;20.90;55.90;;;;;;5093619;28;19998;-79
2022/02/21 13:34:40;;;;;;;;;;;19.70;59.20;;;;;;5093848;28;20007;-79
2022/02/21 13:37:29;;;;;;;;;;;18.40;61.00;;;;;;5094015;28;20439;-79
2022/02/21 13:39:55;;;;;;;;;;;17.70;62.30;;;;;;5084360;28;19915;-79
2022/02/21 13:42:31;;;;;;;;;;;17.60;62.50;;;;;;5097586;28;20463;-79
2022/02/21 13:45:15;;;;;;;;;;;17.90;63.30;;;;;;5097689;28;19940;-79
2022/02/21 13:47:41;;;;;;;;;;;17.60;63.70;;;;;;5097536;28;19934;-79
2022/02/21 13:50:06;;;;;;;;;;;17.50;65.30;;;;;;5097498;28;20384;-78
2022/02/21 13:52:48;;;;;;;;;;;17.30;65.20;;;;;;5097482;28;19908;-78
2022/02/21 13:55:21;;;;;;;;;;;17.00;66.70;;;;;;5097557;28;19912;-78
2022/02/21 13:58:03;;;;;;;;;;;16.50;68.10;;;;;;5079136;28;19958;-78
2022/02/21 14:00:45;;;;;;;;;;;16.20;69.90;;;;;;5079064;28;19958;-78
2022/02/21 14:03:11;;;;;;;;;;;16.10;71.30;;;;;;5097259;28;19908;-78
2022/02/21 14:05:55;;;;;;;;;;;16.10;71.60;;;;;;5078869;28;19912;-79
2022/02/21 14:08:21;;;;;;;;;;;16.60;72.10;;;;;;5097125;28;19908;-78
2022/02/21 14:10:54;;;;;;;;;;;19.40;68.30;;;;;;5097047;28;20402;-79
2022/02/21 14:13:19;;;;;;;;;;;18.40;67.00;;;;;;5097030;28;19916;-78
2022/02/21 14:15:45;;;;;;;;;;;17.80;67.10;;;;;;5078555;28;19920;-78
2022/02/21 14:18:10;;;;;;;;;;;18.20;66.60;;;;;;5097195;28;19957;-78
2022/02/21 14:20:36;;;;;;;;;;;19.10;66.10;;;;;;5096977;28;19912;-78
2022/02/21 14:23:01;;;;;;;;;;;18.30;65.40;;;;;;5097122;28;20395;-79
2022/02/21 14:25:27;;;;;;;;;;;17.30;66.90;;;;;;5078543;28;19973;-79